sensor_id;sensor_type;location;lat;lon;timestamp;temperature;humidity
39899;DHT22;25571;47.876;10.642;2022-08-01T00:01:33;20.40;88.30
39899;DHT22;25571;47.876;10.642;2022-08-01T00:03:58;20.40;88.10
39899;DHT22;25571;47.876;10.642;2022-08-01T00:06:24;20.50;87.90
39899;DHT22;25571;47.876;10.642;2022-08-01T00:08:49;20.40;87.00
39899;DHT22;25571;47.876;10.642;2022-08-01T00:11:15;20.50;86.90
39899;DHT22;25571;47.876;10.642;2022-08-01T00:13:40;20.50;87.10
39899;DHT22;25571;47.876;10.642;2022-08-01T00:16:06;20.40;86.00
39899;DHT22;25571;47.876;10.642;2022-08-01T00:18:31;20.40;86.10
39899;DHT22;25571;47.876;10.642;2022-08-01T00:20:57;20.40;85.00
39899;DHT22;25571;47.876;10.642;2022-08-01T00:23:22;20.50;84.20
39899;DHT22;25571;47.876;10.642;2022-08-01T00:25:48;20.40;84.20
39899;DHT22;25571;47.876;10.642;2022-08-01T00:28:13;20.50;84.60
39899;DHT22;25571;47.876;10.642;2022-08-01T00:30:39;20.50;82.90
39899;DHT22;25571;47.876;10.642;2022-08-01T00:33:04;20.50;82.30
39899;DHT22;25571;47.876;10.642;2022-08-01T00:35:30;20.50;83.60
39899;DHT22;25571;47.876;10.642;2022-08-01T00:37:55;20.50;83.60
39899;DHT22;25571;47.876;10.642;2022-08-01T00:40:21;20.50;83.10
39899;DHT22;25571;47.876;10.642;2022-08-01T00:42:47;20.40;83.30
39899;DHT22;25571;47.876;10.642;2022-08-01T00:45:12;20.50;83.30
39899;DHT22;25571;47.876;10.642;2022-08-01T00:47:38;20.40;84.50
39899;DHT22;25571;47.876;10.642;2022-08-01T00:50:04;20.30;83.90
39899;DHT22;25571;47.876;10.642;2022-08-01T00:52:30;20.30;85.50
39899;DHT22;25571;47.876;10.642;2022-08-01T00:54:55;20.30;84.50
39899;DHT22;25571;47.876;10.642;2022-08-01T00:57:21;20.30;84.50
39899;DHT22;25571;47.876;10.642;2022-08-01T00:59:47;20.30;83.50
39899;DHT22;25571;47.876;10.642;2022-08-01T01:02:12;20.30;84.40
39899;DHT22;25571;47.876;10.642;2022-08-01T01:04:38;20.20;85.00
39899;DHT22;25571;47.876;10.642;2022-08-01T01:07:09;20.20;85.40
39899;DHT22;25571;47.876;10.642;2022-08-01T01:17:14;19.80;87.80
39899;DHT22;25571;47.876;10.642;2022-08-01T01:19:45;19.70;88.30
39899;DHT22;25571;47.876;10.642;2022-08-01T01:22:17;19.60;88.30
39899;DHT22;25571;47.876;10.642;2022-08-01T01:24:46;19.60;88.40
39899;DHT22;25571;47.876;10.642;2022-08-01T01:27:25;19.50;88.70
39899;DHT22;25571;47.876;10.642;2022-08-01T01:29:54;19.50;88.80
39899;DHT22;25571;47.876;10.642;2022-08-01T01:34:47;19.40;88.60
39899;DHT22;25571;47.876;10.642;2022-08-01T01:37:15;19.40;88.50
39899;DHT22;25571;47.876;10.642;2022-08-01T01:39:41;19.40;88.90
39899;DHT22;25571;47.876;10.642;2022-08-01T01:42:07;19.30;89.60
39899;DHT22;25571;47.876;10.642;2022-08-01T01:44:33;19.30;90.20
39899;DHT22;25571;47.876;10.642;2022-08-01T01:46:59;19.20;90.10
39899;DHT22;25571;47.876;10.642;2022-08-01T01:49:25;19.20;90.10
39899;DHT22;25571;47.876;10.642;2022-08-01T01:51:51;19.20;90.30
39899;DHT22;25571;47.876;10.642;2022-08-01T01:54:18;19.20;90.60
39899;DHT22;25571;47.876;10.642;2022-08-01T01:56:44;19.10;90.80
39899;DHT22;25571;47.876;10.642;2022-08-01T01:59:18;19.10;90.40
39899;DHT22;25571;47.876;10.642;2022-08-01T02:01:45;19.10;90.60
39899;DHT22;25571;47.876;10.642;2022-08-01T02:04:11;19.00;90.50
39899;DHT22;25571;47.876;10.642;2022-08-01T02:06:37;19.10;90.50
39899;DHT22;25571;47.876;10.642;2022-08-01T02:09:03;19.10;90.40
39899;DHT22;25571;47.876;10.642;2022-08-01T02:11:30;19.00;90.50
39899;DHT22;25571;47.876;10.642;2022-08-01T02:13:57;19.00;90.60
39899;DHT22;25571;47.876;10.642;2022-08-01T02:16:28;18.90;90.60
39899;DHT22;25571;47.876;10.642;2022-08-01T02:18:54;18.80;90.70
39899;DHT22;25571;47.876;10.642;2022-08-01T02:21:23;18.80;90.90
39899;DHT22;25571;47.876;10.642;2022-08-01T02:23:50;18.80;90.90
39899;DHT22;25571;47.876;10.642;2022-08-01T02:26:16;18.70;91.00
39899;DHT22;25571;47.876;10.642;2022-08-01T02:28:45;18.70;91.20
39899;DHT22;25571;47.876;10.642;2022-08-01T02:31:11;18.70;91.00
39899;DHT22;25571;47.876;10.642;2022-08-01T02:33:46;18.60;91.20
39899;DHT22;25571;47.876;10.642;2022-08-01T02:36:14;18.60;91.20
39899;DHT22;25571;47.876;10.642;2022-08-01T02:38:42;18.70;90.90
39899;DHT22;25571;47.876;10.642;2022-08-01T02:41:10;18.70;91.20
39899;DHT22;25571;47.876;10.642;2022-08-01T02:43:38;18.70;91.00
39899;DHT22;25571;47.876;10.642;2022-08-01T02:46:06;18.70;91.20
39899;DHT22;25571;47.876;10.642;2022-08-01T02:48:33;18.60;91.00
39899;DHT22;25571;47.876;10.642;2022-08-01T02:51:00;18.60;91.10
39899;DHT22;25571;47.876;10.642;2022-08-01T02:53:26;18.40;91.40
39899;DHT22;25571;47.876;10.642;2022-08-01T02:55:52;18.50;91.50
39899;DHT22;25571;47.876;10.642;2022-08-01T02:58:19;18.50;91.10
39899;DHT22;25571;47.876;10.642;2022-08-01T03:00:45;18.50;91.30
39899;DHT22;25571;47.876;10.642;2022-08-01T03:03:11;18.50;91.20
39899;DHT22;25571;47.876;10.642;2022-08-01T03:05:38;18.50;90.90
39899;DHT22;25571;47.876;10.642;2022-08-01T03:08:06;18.50;91.30
39899;DHT22;25571;47.876;10.642;2022-08-01T03:10:36;18.50;91.50
39899;DHT22;25571;47.876;10.642;2022-08-01T03:13:01;18.40;91.60
39899;DHT22;25571;47.876;10.642;2022-08-01T03:15:29;18.50;91.50
39899;DHT22;25571;47.876;10.642;2022-08-01T03:17:56;18.40;91.70
39899;DHT22;25571;47.876;10.642;2022-08-01T03:20:22;18.30;91.80
39899;DHT22;25571;47.876;10.642;2022-08-01T03:22:50;18.30;92.10
39899;DHT22;25571;47.876;10.642;2022-08-01T03:25:18;18.30;92.30
39899;DHT22;25571;47.876;10.642;2022-08-01T03:27:43;18.20;92.10
39899;DHT22;25571;47.876;10.642;2022-08-01T03:30:11;18.00;92.30
39899;DHT22;25571;47.876;10.642;2022-08-01T03:32:36;18.10;92.60
39899;DHT22;25571;47.876;10.642;2022-08-01T03:35:02;18.10;92.50
39899;DHT22;25571;47.876;10.642;2022-08-01T03:37:29;18.10;92.40
39899;DHT22;25571;47.876;10.642;2022-08-01T03:40:04;18.00;92.70
39899;DHT22;25571;47.876;10.642;2022-08-01T03:42:32;18.00;93.00
39899;DHT22;25571;47.876;10.642;2022-08-01T03:44:59;17.90;92.90
39899;DHT22;25571;47.876;10.642;2022-08-01T03:47:29;18.00;92.80
39899;DHT22;25571;47.876;10.642;2022-08-01T03:49:55;17.90;93.00
39899;DHT22;25571;47.876;10.642;2022-08-01T03:52:21;17.90;93.10
39899;DHT22;25571;47.876;10.642;2022-08-01T03:54:47;17.80;93.60
39899;DHT22;25571;47.876;10.642;2022-08-01T03:57:14;17.70;93.60
39899;DHT22;25571;47.876;10.642;2022-08-01T03:59:41;17.60;94.00
39899;DHT22;25571;47.876;10.642;2022-08-01T04:02:09;17.60;94.20
39899;DHT22;25571;47.876;10.642;2022-08-01T04:04:34;17.60;94.20
39899;DHT22;25571;47.876;10.642;2022-08-01T04:07:00;17.60;94.20
39899;DHT22;25571;47.876;10.642;2022-08-01T04:09:31;17.50;94.10
39899;DHT22;25571;47.876;10.642;2022-08-01T04:12:00;17.50;94.40
39899;DHT22;25571;47.876;10.642;2022-08-01T04:14:26;17.50;94.90
39899;DHT22;25571;47.876;10.642;2022-08-01T04:16:52;17.40;95.20
39899;DHT22;25571;47.876;10.642;2022-08-01T04:19:18;17.40;95.30
39899;DHT22;25571;47.876;10.642;2022-08-01T04:21:43;17.50;95.20
39899;DHT22;25571;47.876;10.642;2022-08-01T04:24:11;17.40;95.50
39899;DHT22;25571;47.876;10.642;2022-08-01T04:26:38;17.50;95.70
39899;DHT22;25571;47.876;10.642;2022-08-01T04:29:04;17.40;96.40
39899;DHT22;25571;47.876;10.642;2022-08-01T04:31:31;17.30;96.80
39899;DHT22;25571;47.876;10.642;2022-08-01T04:33:56;17.10;97.30
39899;DHT22;25571;47.876;10.642;2022-08-01T04:36:22;17.20;97.70
39899;DHT22;25571;47.876;10.642;2022-08-01T04:38:48;17.20;97.70
39899;DHT22;25571;47.876;10.642;2022-08-01T04:41:15;17.30;96.80
39899;DHT22;25571;47.876;10.642;2022-08-01T04:43:42;17.30;98.60
39899;DHT22;25571;47.876;10.642;2022-08-01T04:46:08;17.30;99.30
39899;DHT22;25571;47.876;10.642;2022-08-01T04:48:34;17.30;99.90
39899;DHT22;25571;47.876;10.642;2022-08-01T04:51:01;17.30;99.90
39899;DHT22;25571;47.876;10.642;2022-08-01T04:53:27;17.30;99.90
39899;DHT22;25571;47.876;10.642;2022-08-01T04:55:53;17.40;99.90
39899;DHT22;25571;47.876;10.642;2022-08-01T04:58:18;17.30;99.90
39899;DHT22;25571;47.876;10.642;2022-08-01T05:00:44;17.30;99.90
39899;DHT22;25571;47.876;10.642;2022-08-01T05:03:10;17.40;99.90
39899;DHT22;25571;47.876;10.642;2022-08-01T05:05:35;17.50;99.90
39899;DHT22;25571;47.876;10.642;2022-08-01T05:08:00;17.60;99.90
39899;DHT22;25571;47.876;10.642;2022-08-01T05:10:26;17.70;99.90
39899;DHT22;25571;47.876;10.642;2022-08-01T05:12:52;17.80;99.90
39899;DHT22;25571;47.876;10.642;2022-08-01T05:15:18;18.00;99.90
39899;DHT22;25571;47.876;10.642;2022-08-01T05:17:43;18.10;99.90
39899;DHT22;25571;47.876;10.642;2022-08-01T05:20:09;18.20;99.60
39899;DHT22;25571;47.876;10.642;2022-08-01T05:22:35;18.20;99.60
39899;DHT22;25571;47.876;10.642;2022-08-01T05:25:00;18.20;99.90
39899;DHT22;25571;47.876;10.642;2022-08-01T05:27:26;18.30;99.90
39899;DHT22;25571;47.876;10.642;2022-08-01T05:29:51;18.40;99.90
39899;DHT22;25571;47.876;10.642;2022-08-01T05:32:17;18.40;99.90
39899;DHT22;25571;47.876;10.642;2022-08-01T05:34:43;18.60;99.90
39899;DHT22;25571;47.876;10.642;2022-08-01T05:37:08;18.70;99.90
39899;DHT22;25571;47.876;10.642;2022-08-01T05:39:34;18.80;99.20
39899;DHT22;25571;47.876;10.642;2022-08-01T05:41:59;18.80;99.10
39899;DHT22;25571;47.876;10.642;2022-08-01T05:44:25;18.90;98.40
39899;DHT22;25571;47.876;10.642;2022-08-01T05:46:51;19.00;97.40
39899;DHT22;25571;47.876;10.642;2022-08-01T05:49:16;19.20;97.30
39899;DHT22;25571;47.876;10.642;2022-08-01T05:51:42;19.20;97.40
39899;DHT22;25571;47.876;10.642;2022-08-01T05:54:07;19.40;96.40
39899;DHT22;25571;47.876;10.642;2022-08-01T05:56:33;19.30;97.00
39899;DHT22;25571;47.876;10.642;2022-08-01T05:58:58;19.30;96.60
39899;DHT22;25571;47.876;10.642;2022-08-01T06:01:24;19.50;96.30
39899;DHT22;25571;47.876;10.642;2022-08-01T06:03:49;19.60;95.90
39899;DHT22;25571;47.876;10.642;2022-08-01T06:06:15;19.70;96.00
39899;DHT22;25571;47.876;10.642;2022-08-01T06:08:40;19.90;96.40
39899;DHT22;25571;47.876;10.642;2022-08-01T06:11:06;19.90;95.90
39899;DHT22;25571;47.876;10.642;2022-08-01T06:13:31;20.00;95.50
39899;DHT22;25571;47.876;10.642;2022-08-01T06:15:57;20.10;95.70
39899;DHT22;25571;47.876;10.642;2022-08-01T06:18:23;20.10;95.30
39899;DHT22;25571;47.876;10.642;2022-08-01T06:20:48;20.20;96.10
39899;DHT22;25571;47.876;10.642;2022-08-01T06:23:14;20.30;96.20
39899;DHT22;25571;47.876;10.642;2022-08-01T06:25:43;20.40;95.40
39899;DHT22;25571;47.876;10.642;2022-08-01T06:28:09;20.60;93.90
39899;DHT22;25571;47.876;10.642;2022-08-01T06:30:34;20.70;94.20
39899;DHT22;25571;47.876;10.642;2022-08-01T06:33:00;20.90;93.50
39899;DHT22;25571;47.876;10.642;2022-08-01T06:35:26;21.00;94.00
39899;DHT22;25571;47.876;10.642;2022-08-01T06:37:52;21.10;93.60
39899;DHT22;25571;47.876;10.642;2022-08-01T06:40:17;21.10;92.20
39899;DHT22;25571;47.876;10.642;2022-08-01T06:42:43;21.30;91.40
39899;DHT22;25571;47.876;10.642;2022-08-01T06:45:11;21.30;89.30
39899;DHT22;25571;47.876;10.642;2022-08-01T06:47:40;21.50;90.00
39899;DHT22;25571;47.876;10.642;2022-08-01T06:50:06;21.60;90.10
39899;DHT22;25571;47.876;10.642;2022-08-01T06:52:32;21.70;89.30
39899;DHT22;25571;47.876;10.642;2022-08-01T06:54:57;21.90;88.30
39899;DHT22;25571;47.876;10.642;2022-08-01T06:57:23;22.00;85.40
39899;DHT22;25571;47.876;10.642;2022-08-01T06:59:48;22.20;87.70
39899;DHT22;25571;47.876;10.642;2022-08-01T07:02:14;22.40;84.40
39899;DHT22;25571;47.876;10.642;2022-08-01T07:04:39;22.60;83.60
39899;DHT22;25571;47.876;10.642;2022-08-01T07:07:05;22.80;80.40
39899;DHT22;25571;47.876;10.642;2022-08-01T07:09:30;22.90;81.00
39899;DHT22;25571;47.876;10.642;2022-08-01T07:11:56;22.90;78.80
39899;DHT22;25571;47.876;10.642;2022-08-01T07:14:22;22.90;79.40
39899;DHT22;25571;47.876;10.642;2022-08-01T07:16:48;22.90;78.00
39899;DHT22;25571;47.876;10.642;2022-08-01T07:19:13;23.00;78.20
39899;DHT22;25571;47.876;10.642;2022-08-01T07:21:39;23.10;79.00
39899;DHT22;25571;47.876;10.642;2022-08-01T07:24:05;23.20;78.30
39899;DHT22;25571;47.876;10.642;2022-08-01T07:26:31;23.10;77.30
39899;DHT22;25571;47.876;10.642;2022-08-01T07:28:56;23.20;78.40
39899;DHT22;25571;47.876;10.642;2022-08-01T07:31:22;23.30;77.50
39899;DHT22;25571;47.876;10.642;2022-08-01T07:33:48;23.30;77.40
39899;DHT22;25571;47.876;10.642;2022-08-01T07:36:14;23.30;76.20
39899;DHT22;25571;47.876;10.642;2022-08-01T07:38:39;23.30;76.50
39899;DHT22;25571;47.876;10.642;2022-08-01T07:41:04;23.40;76.10
39899;DHT22;25571;47.876;10.642;2022-08-01T07:43:30;23.50;75.30
39899;DHT22;25571;47.876;10.642;2022-08-01T07:45:55;23.50;75.30
39899;DHT22;25571;47.876;10.642;2022-08-01T07:48:21;23.50;73.30
39899;DHT22;25571;47.876;10.642;2022-08-01T07:50:49;23.50;73.00
39899;DHT22;25571;47.876;10.642;2022-08-01T07:53:15;23.60;74.10
39899;DHT22;25571;47.876;10.642;2022-08-01T07:55:40;23.60;75.30
39899;DHT22;25571;47.876;10.642;2022-08-01T07:58:06;23.70;74.50
39899;DHT22;25571;47.876;10.642;2022-08-01T08:00:31;23.70;73.30
39899;DHT22;25571;47.876;10.642;2022-08-01T08:02:57;23.70;72.70
39899;DHT22;25571;47.876;10.642;2022-08-01T08:05:25;23.80;74.70
39899;DHT22;25571;47.876;10.642;2022-08-01T08:07:50;23.90;74.00
39899;DHT22;25571;47.876;10.642;2022-08-01T08:10:16;24.00;74.50
39899;DHT22;25571;47.876;10.642;2022-08-01T08:12:41;24.00;73.30
39899;DHT22;25571;47.876;10.642;2022-08-01T08:15:07;24.10;72.30
39899;DHT22;25571;47.876;10.642;2022-08-01T08:17:32;24.10;73.20
39899;DHT22;25571;47.876;10.642;2022-08-01T08:19:58;24.20;71.90
39899;DHT22;25571;47.876;10.642;2022-08-01T08:22:24;24.20;71.20
39899;DHT22;25571;47.876;10.642;2022-08-01T08:24:49;24.30;72.20
39899;DHT22;25571;47.876;10.642;2022-08-01T08:27:15;24.20;69.70
39899;DHT22;25571;47.876;10.642;2022-08-01T08:29:41;24.30;72.60
39899;DHT22;25571;47.876;10.642;2022-08-01T08:32:07;24.40;72.40
39899;DHT22;25571;47.876;10.642;2022-08-01T08:34:32;24.50;72.60
39899;DHT22;25571;47.876;10.642;2022-08-01T08:36:58;24.50;70.30
39899;DHT22;25571;47.876;10.642;2022-08-01T08:39:25;24.60;72.90
39899;DHT22;25571;47.876;10.642;2022-08-01T08:41:50;24.70;71.70
39899;DHT22;25571;47.876;10.642;2022-08-01T08:44:16;24.70;70.90
39899;DHT22;25571;47.876;10.642;2022-08-01T08:46:43;24.80;70.70
39899;DHT22;25571;47.876;10.642;2022-08-01T08:49:09;24.70;71.60
39899;DHT22;25571;47.876;10.642;2022-08-01T08:51:36;24.80;67.50
39899;DHT22;25571;47.876;10.642;2022-08-01T08:54:03;24.90;69.90
39899;DHT22;25571;47.876;10.642;2022-08-01T08:56:29;25.00;68.30
39899;DHT22;25571;47.876;10.642;2022-08-01T08:58:59;25.00;69.60
39899;DHT22;25571;47.876;10.642;2022-08-01T09:01:25;25.10;66.20
39899;DHT22;25571;47.876;10.642;2022-08-01T09:03:50;25.10;66.90
39899;DHT22;25571;47.876;10.642;2022-08-01T09:06:16;25.30;66.50
39899;DHT22;25571;47.876;10.642;2022-08-01T09:08:41;25.40;67.60
39899;DHT22;25571;47.876;10.642;2022-08-01T09:11:07;25.60;68.50
39899;DHT22;25571;47.876;10.642;2022-08-01T09:13:32;25.80;68.60
39899;DHT22;25571;47.876;10.642;2022-08-01T09:15:58;25.70;65.10
39899;DHT22;25571;47.876;10.642;2022-08-01T09:26:08;26.00;63.70
39899;DHT22;25571;47.876;10.642;2022-08-01T09:28:34;26.40;63.00
39899;DHT22;25571;47.876;10.642;2022-08-01T09:31:05;26.60;65.50
39899;DHT22;25571;47.876;10.642;2022-08-01T09:33:50;27.10;63.30
39899;DHT22;25571;47.876;10.642;2022-08-01T09:36:16;27.60;61.50
39899;DHT22;25571;47.876;10.642;2022-08-01T09:38:41;28.30;60.40
39899;DHT22;25571;47.876;10.642;2022-08-01T09:41:07;28.30;56.30
39899;DHT22;25571;47.876;10.642;2022-08-01T09:43:33;28.80;56.10
39899;DHT22;25571;47.876;10.642;2022-08-01T09:45:59;29.20;55.80
39899;DHT22;25571;47.876;10.642;2022-08-01T09:48:25;28.80;55.20
39899;DHT22;25571;47.876;10.642;2022-08-01T09:50:51;28.90;55.60
39899;DHT22;25571;47.876;10.642;2022-08-01T09:53:17;28.90;56.50
39899;DHT22;25571;47.876;10.642;2022-08-01T09:55:43;28.80;57.20
39899;DHT22;25571;47.876;10.642;2022-08-01T09:58:10;29.00;58.00
39899;DHT22;25571;47.876;10.642;2022-08-01T10:00:37;28.70;56.90
39899;DHT22;25571;47.876;10.642;2022-08-01T10:03:19;28.80;57.60
39899;DHT22;25571;47.876;10.642;2022-08-01T10:05:44;28.70;57.20
39899;DHT22;25571;47.876;10.642;2022-08-01T10:08:10;28.60;56.90
39899;DHT22;25571;47.876;10.642;2022-08-01T10:10:37;28.30;55.60
39899;DHT22;25571;47.876;10.642;2022-08-01T10:13:03;28.40;56.30
39899;DHT22;25571;47.876;10.642;2022-08-01T10:15:29;28.30;55.00
39899;DHT22;25571;47.876;10.642;2022-08-01T10:17:56;28.20;58.10
39899;DHT22;25571;47.876;10.642;2022-08-01T10:20:23;28.30;59.10
39899;DHT22;25571;47.876;10.642;2022-08-01T10:22:49;28.20;59.60
39899;DHT22;25571;47.876;10.642;2022-08-01T10:25:14;28.20;58.40
39899;DHT22;25571;47.876;10.642;2022-08-01T10:27:43;28.20;59.20
39899;DHT22;25571;47.876;10.642;2022-08-01T10:30:10;28.20;58.70
39899;DHT22;25571;47.876;10.642;2022-08-01T10:32:36;28.10;58.00
39899;DHT22;25571;47.876;10.642;2022-08-01T10:35:03;28.20;58.70
39899;DHT22;25571;47.876;10.642;2022-08-01T10:37:29;28.10;58.10
39899;DHT22;25571;47.876;10.642;2022-08-01T10:39:55;28.10;57.00
39899;DHT22;25571;47.876;10.642;2022-08-01T10:42:21;28.10;58.10
39899;DHT22;25571;47.876;10.642;2022-08-01T10:44:47;28.00;57.10
39899;DHT22;25571;47.876;10.642;2022-08-01T10:47:21;28.10;58.40
39899;DHT22;25571;47.876;10.642;2022-08-01T10:49:53;28.00;56.60
39899;DHT22;25571;47.876;10.642;2022-08-01T10:52:21;28.00;57.10
39899;DHT22;25571;47.876;10.642;2022-08-01T10:54:47;27.80;57.50
39899;DHT22;25571;47.876;10.642;2022-08-01T10:57:13;27.80;59.00
39899;DHT22;25571;47.876;10.642;2022-08-01T10:59:49;27.80;57.50
39899;DHT22;25571;47.876;10.642;2022-08-01T11:02:26;27.80;58.30
39899;DHT22;25571;47.876;10.642;2022-08-01T11:07:22;27.70;57.80
39899;DHT22;25571;47.876;10.642;2022-08-01T11:09:51;27.70;56.00
39899;DHT22;25571;47.876;10.642;2022-08-01T11:12:24;27.60;57.90
39899;DHT22;25571;47.876;10.642;2022-08-01T11:17:30;27.70;56.60
39899;DHT22;25571;47.876;10.642;2022-08-01T11:20:03;27.70;57.20
39899;DHT22;25571;47.876;10.642;2022-08-01T11:22:29;27.70;56.70
39899;DHT22;25571;47.876;10.642;2022-08-01T11:24:55;27.60;56.60
39899;DHT22;25571;47.876;10.642;2022-08-01T11:27:31;27.70;58.10
39899;DHT22;25571;47.876;10.642;2022-08-01T11:32:54;27.70;58.00
39899;DHT22;25571;47.876;10.642;2022-08-01T11:35:21;27.40;55.10
39899;DHT22;25571;47.876;10.642;2022-08-01T11:37:48;27.40;54.80
39899;DHT22;25571;47.876;10.642;2022-08-01T11:42:39;27.50;55.90
39899;DHT22;25571;47.876;10.642;2022-08-01T11:45:05;27.40;54.90
39899;DHT22;25571;47.876;10.642;2022-08-01T11:47:44;27.40;55.10
39899;DHT22;25571;47.876;10.642;2022-08-01T11:53:01;27.50;56.60
39899;DHT22;25571;47.876;10.642;2022-08-01T11:55:27;27.50;56.50
39899;DHT22;25571;47.876;10.642;2022-08-01T11:58:00;27.50;55.50
39899;DHT22;25571;47.876;10.642;2022-08-01T12:00:27;27.50;54.60
39899;DHT22;25571;47.876;10.642;2022-08-01T12:03:10;27.50;57.40
39899;DHT22;25571;47.876;10.642;2022-08-01T12:05:36;27.60;57.20
39899;DHT22;25571;47.876;10.642;2022-08-01T12:08:04;27.50;54.20
39899;DHT22;25571;47.876;10.642;2022-08-01T12:10:32;27.50;57.30
39899;DHT22;25571;47.876;10.642;2022-08-01T12:13:05;27.50;56.20
39899;DHT22;25571;47.876;10.642;2022-08-01T12:15:33;27.40;57.60
39899;DHT22;25571;47.876;10.642;2022-08-01T12:17:59;27.40;56.20
39899;DHT22;25571;47.876;10.642;2022-08-01T12:20:33;27.30;54.10
39899;DHT22;25571;47.876;10.642;2022-08-01T12:23:08;27.40;54.50
39899;DHT22;25571;47.876;10.642;2022-08-01T12:25:34;27.30;52.20
39899;DHT22;25571;47.876;10.642;2022-08-01T12:28:01;27.30;54.50
39899;DHT22;25571;47.876;10.642;2022-08-01T12:30:27;27.20;53.70
39899;DHT22;25571;47.876;10.642;2022-08-01T12:32:53;27.20;53.10
39899;DHT22;25571;47.876;10.642;2022-08-01T12:35:23;27.20;53.10
39899;DHT22;25571;47.876;10.642;2022-08-01T12:37:50;27.20;52.10
39899;DHT22;25571;47.876;10.642;2022-08-01T12:40:27;27.30;55.20
39899;DHT22;25571;47.876;10.642;2022-08-01T12:42:54;27.20;50.30
39899;DHT22;25571;47.876;10.642;2022-08-01T12:45:21;27.30;52.80
39899;DHT22;25571;47.876;10.642;2022-08-01T12:47:48;27.30;52.00
39899;DHT22;25571;47.876;10.642;2022-08-01T12:50:15;27.30;52.30
39899;DHT22;25571;47.876;10.642;2022-08-01T12:52:41;27.40;52.00
39899;DHT22;25571;47.876;10.642;2022-08-01T12:55:11;27.30;51.40
39899;DHT22;25571;47.876;10.642;2022-08-01T12:57:37;27.30;53.90
39899;DHT22;25571;47.876;10.642;2022-08-01T13:00:11;27.30;51.50
39899;DHT22;25571;47.876;10.642;2022-08-01T13:02:37;27.30;52.20
39899;DHT22;25571;47.876;10.642;2022-08-01T13:05:04;27.40;52.60
39899;DHT22;25571;47.876;10.642;2022-08-01T13:10:04;27.30;53.10
39899;DHT22;25571;47.876;10.642;2022-08-01T13:12:30;27.30;53.20
39899;DHT22;25571;47.876;10.642;2022-08-01T13:14:55;27.30;53.70
39899;DHT22;25571;47.876;10.642;2022-08-01T13:17:30;27.40;52.60
39899;DHT22;25571;47.876;10.642;2022-08-01T13:19:56;27.40;53.00
39899;DHT22;25571;47.876;10.642;2022-08-01T13:22:30;27.30;51.80
39899;DHT22;25571;47.876;10.642;2022-08-01T13:25:08;27.30;51.60
39899;DHT22;25571;47.876;10.642;2022-08-01T13:27:34;27.40;52.90
39899;DHT22;25571;47.876;10.642;2022-08-01T13:30:09;27.30;51.80
39899;DHT22;25571;47.876;10.642;2022-08-01T13:32:35;27.40;53.00
39899;DHT22;25571;47.876;10.642;2022-08-01T13:35:01;27.40;51.90
39899;DHT22;25571;47.876;10.642;2022-08-01T13:37:27;27.30;50.20
39899;DHT22;25571;47.876;10.642;2022-08-01T13:39:52;27.30;51.00
39899;DHT22;25571;47.876;10.642;2022-08-01T13:42:18;27.30;50.70
39899;DHT22;25571;47.876;10.642;2022-08-01T13:44:43;27.30;51.60
39899;DHT22;25571;47.876;10.642;2022-08-01T13:47:12;27.30;53.20
39899;DHT22;25571;47.876;10.642;2022-08-01T13:49:37;27.30;51.70
39899;DHT22;25571;47.876;10.642;2022-08-01T13:52:03;27.30;53.60
39899;DHT22;25571;47.876;10.642;2022-08-01T13:54:31;27.30;51.30
39899;DHT22;25571;47.876;10.642;2022-08-01T13:56:56;27.30;53.30
39899;DHT22;25571;47.876;10.642;2022-08-01T13:59:22;27.30;50.90
39899;DHT22;25571;47.876;10.642;2022-08-01T14:01:47;27.30;50.70
39899;DHT22;25571;47.876;10.642;2022-08-01T14:04:14;27.30;50.60
39899;DHT22;25571;47.876;10.642;2022-08-01T14:06:40;27.30;51.60
39899;DHT22;25571;47.876;10.642;2022-08-01T14:09:06;27.30;52.60
39899;DHT22;25571;47.876;10.642;2022-08-01T14:11:31;27.30;50.60
39899;DHT22;25571;47.876;10.642;2022-08-01T14:13:58;27.30;48.50
39899;DHT22;25571;47.876;10.642;2022-08-01T14:16:23;27.20;49.30
39899;DHT22;25571;47.876;10.642;2022-08-01T14:18:49;27.20;48.80
39899;DHT22;25571;47.876;10.642;2022-08-01T14:21:15;27.20;48.70
39899;DHT22;25571;47.876;10.642;2022-08-01T14:23:40;27.10;50.50
39899;DHT22;25571;47.876;10.642;2022-08-01T14:26:08;27.20;50.50
39899;DHT22;25571;47.876;10.642;2022-08-01T14:28:33;27.10;49.80
39899;DHT22;25571;47.876;10.642;2022-08-01T14:30:59;27.10;52.10
39899;DHT22;25571;47.876;10.642;2022-08-01T14:33:25;27.10;48.90
39899;DHT22;25571;47.876;10.642;2022-08-01T14:35:51;27.10;47.50
39899;DHT22;25571;47.876;10.642;2022-08-01T14:38:17;27.10;47.40
39899;DHT22;25571;47.876;10.642;2022-08-01T14:40:42;27.10;47.40
39899;DHT22;25571;47.876;10.642;2022-08-01T14:43:08;27.00;48.60
39899;DHT22;25571;47.876;10.642;2022-08-01T14:45:34;26.90;48.90
39899;DHT22;25571;47.876;10.642;2022-08-01T14:48:00;26.50;56.90
39899;DHT22;25571;47.876;10.642;2022-08-01T14:50:25;26.30;59.20
39899;DHT22;25571;47.876;10.642;2022-08-01T14:52:53;25.90;60.00
39899;DHT22;25571;47.876;10.642;2022-08-01T14:55:19;25.70;61.20
39899;DHT22;25571;47.876;10.642;2022-08-01T14:57:48;25.60;62.60
39899;DHT22;25571;47.876;10.642;2022-08-01T15:00:14;25.60;62.80
39899;DHT22;25571;47.876;10.642;2022-08-01T15:02:39;25.40;63.00
39899;DHT22;25571;47.876;10.642;2022-08-01T15:05:05;25.10;63.30
39899;DHT22;25571;47.876;10.642;2022-08-01T15:07:31;25.00;64.60
39899;DHT22;25571;47.876;10.642;2022-08-01T15:09:57;24.90;65.90
39899;DHT22;25571;47.876;10.642;2022-08-01T15:12:23;25.00;66.00
39899;DHT22;25571;47.876;10.642;2022-08-01T15:14:48;24.90;66.00
39899;DHT22;25571;47.876;10.642;2022-08-01T15:17:24;24.60;66.60
39899;DHT22;25571;47.876;10.642;2022-08-01T15:19:51;24.60;66.40
39899;DHT22;25571;47.876;10.642;2022-08-01T15:22:18;24.40;66.70
39899;DHT22;25571;47.876;10.642;2022-08-01T15:24:43;24.50;67.50
39899;DHT22;25571;47.876;10.642;2022-08-01T15:27:09;24.50;67.30
39899;DHT22;25571;47.876;10.642;2022-08-01T15:29:35;24.30;67.70
39899;DHT22;25571;47.876;10.642;2022-08-01T15:32:02;24.30;68.20
39899;DHT22;25571;47.876;10.642;2022-08-01T15:34:28;24.20;69.10
39899;DHT22;25571;47.876;10.642;2022-08-01T15:36:54;24.20;69.40
39899;DHT22;25571;47.876;10.642;2022-08-01T15:39:19;24.20;69.80
39899;DHT22;25571;47.876;10.642;2022-08-01T15:41:45;24.20;70.50
39899;DHT22;25571;47.876;10.642;2022-08-01T15:44:10;24.30;70.90
39899;DHT22;25571;47.876;10.642;2022-08-01T15:46:36;24.20;71.20